เทศบาลนครสุราษฎร์ธานี, ประเทศไทย

06:28 PM ICT วัน พฤศจิกายน 27, 2014 (GMT +0700)
Surat Thani | Change Station
CLOSE
Current Station
Airport
Location: Surat Thani,
Elevation: 23 ft
Nearby Weather Stations

Elev 23 ft 9.13 °N, 99.15 °E | Updated 1 hour ago

Mostly Cloudy
มีเมฆคลุมเป็นส่วนใหญ่
86 ฟาเรนไฮน์
Feels Like 102 ฟาเรนไฮน์
N
10
ลม ความผันแปร ลม from ทางทิศตะวันออกเฉียงเหนือ

วันนี้
High -- | Low -- ฟาเรนไฮน์
--% Chance of Precip.
Yesterday
High -- | Low -- ฟาเรนไฮน์
Precip. -- นิ้ว
6:21 AM 6:00 PM
เดือนเสี้ยว, 28% visible
ความดัน 29.77 นิ้ว
ทัศนวิสัย 6.2 ไมล์
เมฆ Few 2000 ft
มีเมฆคลุมเป็นส่วนใหญ่ 30000 ft
ดัชนีความร้อน 102 ฟาเรนไฮน์
อุณหภูมิที่อากาศอาจจับตัวเป็นหยาดน้ำค้าง 81 ฟาเรนไฮน์
ความชื้น 84%
Rainfall 0.00 นิ้ว
Snow Depth Not available.
UV 0 out of 12
Pollen Not available.
Air Quality Not available.
Flu Activity Not available.
METAR VTSB 271000Z 04009KT 9999 FEW020 BKN300 30/27 Q1008 A2976

More Conditions Fewer Conditions

ความดัน 29.77 นิ้ว
ทัศนวิสัย 6.2 ไมล์
เมฆ Few 2000 ft
มีเมฆคลุมเป็นส่วนใหญ่ 30000 ft
ดัชนีความร้อน 102 ฟาเรนไฮน์
อุณหภูมิที่อากาศอาจจับตัวเป็นหยาดน้ำค้าง 81 ฟาเรนไฮน์
ความชื้น 84%
Rainfall 0.00 นิ้ว
Snow Depth Not available.
UV 0 out of 12
Pollen Not available.
Air Quality Not available.
Flu Activity Not available.
METAR VTSB 271000Z 04009KT 9999 FEW020 BKN300 30/27 Q1008 A2976

More Conditions Fewer Conditions

10-Day Weather Forecast

Almanac

ดาราศาสตร์

Nov. 27, 2014 Rise Set
Actual Time
Civil Twilight
Nautical Twilight
Astronomical Twilight
Moon
Length Of Visible Light
ความยาวของวัน
Tomorrow will be .
, % of the Moon is Illuminated

Today's Extremes

Country Highs Country Lows

Community

WunderPhotos

Upload Photos

1,773,970 photos uploaded!

WunderBlogs® & News

Nearby

Air Quality

  Air Quality AQ Index Pollutant
Not available.

Snow Depth

Station Depth Elevation

Earthquake Activity

City Distance Mag. Time & Date
Minimum magnitude displayed is 2.5.

Coastal Water Temperatures

สถานที่ อุณหภูมิ

Nearby Weather Stations